La Quiaca, Argentina
Current Conditions -  °F | °C
As of 10:00 PM on Saturday 20 Dec 2014 (Local Time) from SLTJ Reporting Station
Broken Clouds Broken Clouds  
Wind Chill: 24°   Ceiling: 20000
Heat Index: 24°   Visibility: 6mi
Dew Point: 16°   Wind: 0mph
Humidity: 61%   Direction: NA
Pressure: 29.71"   Gusts: NA
Location:  22.11°S, 65.59°W
Report Text: SLTJ 210100Z 00000KT 9999 FEW036CB BKN200 24/16 Q1006
Loading
Personal Weather Stations






























Interactive Weather Map New forecast layout! Learn more

10-Day Weather Forecast

Advertisements
Track Severe Weather on mobile